Sandy City
, Sandy
Last Weather Update:12/30/2011 11:00:00 PM
Date
ETo
ETc
Rain
Irrigation
Req
Temp
Max
Temp
Min
Temp
Avg
Avg RH
Avg Wind
Avg Solar
inches
inches
incehs
inches
F
F
F
%
%
watts/m2
11/01/2011 0.02" 0.00" 0.37" -0.30" 49.3° 32.8° 40.6° 81.5% 0.5 MPH 63.9w/m2
11/02/2011 0.07" 0.00" 0.00" 0.00" 46.3° 25.4° 34.8° 69.5% 0.2 MPH 180.5w/m2
11/03/2011 0.07" 0.00" 0.00" 0.00" 56.6° 28.0° 42.6° 49.8% 0.7 MPH 171.3w/m2
11/04/2011 0.07" 0.00" 0.06" -0.05" 62.6° 32.9° 48.4° 45.9% 0.8 MPH 140.5w/m2
11/05/2011 0.02" 0.00" 0.39" -0.31" 36.5° 28.7° 31.6° 90.9% 0.3 MPH 95.4w/m2
11/06/2011 0.06" 0.00" 0.00" 0.00" 43.2° 24.4° 35.4° 71.4% 0.3 MPH 162.5w/m2
11/07/2011 0.04" 0.00" 0.00" 0.00" 42.7° 31.7° 36.4° 82.5% 0.3 MPH 111.5w/m2
11/08/2011 0.05" 0.00" 0.00" 0.00" 41.2° 25.6° 32.1° 77.8% 0.2 MPH 142.7w/m2
11/09/2011 0.05" 0.00" 0.00" 0.00" 45.6° 20.8° 31.6° 74.1% 0.1 MPH 156.8w/m2
11/10/2011 0.05" 0.00" 0.00" 0.00" 50.0° 23.9° 34.3° 73.0% 0.1 MPH 151.5w/m2
11/11/2011 0.05" 0.00" 0.00" 0.00" 51.6° 25.7° 39.3° 59.1% 0.4 MPH 116.0w/m2
11/12/2011 0.01" 0.00" 0.00" 0.00" 50.9° 32.9° 42.4° 70.1% 0.7 MPH 18.0w/m2
11/13/2011 0.04" 0.00" 0.10" -0.08" 50.3° 35.4° 41.2° 82.0% 0.4 MPH 87.5w/m2
11/14/2011 0.06" 0.00" 0.00" 0.00" 57.2° 34.2° 44.4° 51.1% 0.3 MPH 144.4w/m2
11/15/2011 0.03" 0.00" 0.00" 0.00" 47.0° 31.7° 40.6° 52.1% 0.2 MPH 82.3w/m2
11/16/2011 0.05" 0.00" 0.00" 0.00" 46.7° 26.3° 35.4° 56.9% 0.1 MPH 137.2w/m2
11/17/2011 0.04" 0.00" 0.00" 0.00" 57.1° 28.0° 45.4° 40.6% 0.6 MPH 61.4w/m2
11/18/2011 0.03" 0.00" 0.01" -0.01" 56.1° 32.3° 45.0° 58.3% 0.8 MPH 48.0w/m2
11/19/2011 0.03" 0.00" 0.27" -0.22" 38.6° 27.3° 32.3° 90.5% 0.1 MPH 104.6w/m2
11/20/2011 0.02" 0.00" 0.01" -0.01" 45.4° 25.9° 33.5° 94.8% 0.2 MPH 55.8w/m2
11/21/2011 0.02" 0.00" 0.33" -0.26" 48.4° 31.5° 38.1° 98.7% 0.1 MPH 58.6w/m2
11/22/2011 0.05" 0.00" 0.00" 0.00" 54.2° 30.8° 41.5° 75.6% 0.4 MPH 121.6w/m2
11/23/2011 0.05" 0.00" 0.00" 0.00" 61.8° 32.1° 48.4° 50.0% 0.8 MPH 111.3w/m2
11/24/2011 0.04" 0.00" 0.00" 0.00" 58.1° 44.6° 51.5° 39.8% 0.9 MPH 69.1w/m2
11/25/2011 0.03" 0.00" 0.00" 0.00" 50.9° 28.5° 40.5° 57.9% 0.4 MPH 66.1w/m2
11/26/2011 0.04" 0.00" 0.00" 0.00" 43.3° 21.3° 31.2° 53.9% 0.1 MPH 131.3w/m2
11/27/2011 0.04" 0.00" 0.00" 0.00" 52.0° 23.2° 34.1° 61.6% 0.1 MPH 126.3w/m2
11/28/2011 0.03" 0.00" 0.00" 0.00" 46.0° 26.5° 35.4° 76.4% 0.1 MPH 87.7w/m2
11/29/2011 0.04" 0.00" 0.00" 0.00" 51.8° 25.7° 36.1° 79.7% 0.2 MPH 118.2w/m2
11/30/2011 0.03" 0.00" 0.00" 0.00" 44.2° 30.5° 35.9° 84.4% 0.5 MPH 105.1w/m2
Totals: 1.22" 0.00" 1.54" -1.23" 62.6° 20.8° 38.7° 68.3% 0.4 MPH 107.6w/m2